createdAt,value
2018-03-15T00:01:25.947Z,31.47
2018-03-15T00:03:53.608Z,23.23
2018-03-15T00:06:21.220Z,31.63
2018-03-15T00:08:48.793Z,27.13
2018-03-15T00:11:16.590Z,28.07
2018-03-15T00:13:44.217Z,26.97
2018-03-15T00:16:11.777Z,36.20
2018-03-15T00:18:39.349Z,36.63
2018-03-15T00:21:07.031Z,25.30
2018-03-15T00:23:34.699Z,26.20
2018-03-15T00:26:02.257Z,62.00
2018-03-15T00:28:30.024Z,34.00
2018-03-15T00:30:57.606Z,33.20
2018-03-15T00:33:25.352Z,34.33
2018-03-15T00:35:52.975Z,26.40
2018-03-15T00:38:20.571Z,22.00
2018-03-15T00:40:48.329Z,30.00
2018-03-15T00:43:16.172Z,27.03
2018-03-15T00:45:43.749Z,25.87
2018-03-15T00:48:11.532Z,26.13
2018-03-15T00:50:39.385Z,24.07
2018-03-15T00:53:07.110Z,33.37
2018-03-15T00:55:34.786Z,30.67
2018-03-15T00:58:02.405Z,41.77
2018-03-15T01:00:30.002Z,31.73
2018-03-15T01:02:57.587Z,40.13
2018-03-15T01:05:25.202Z,29.37
2018-03-15T01:07:52.828Z,30.30
2018-03-15T01:10:20.492Z,24.67
2018-03-15T01:12:48.154Z,21.90
2018-03-15T01:15:15.729Z,23.43
2018-03-15T01:17:43.380Z,20.90
2018-03-15T01:20:10.994Z,20.67
2018-03-15T01:22:38.639Z,22.60
2018-03-15T01:25:06.215Z,25.37
2018-03-15T01:27:33.832Z,23.13
2018-03-15T01:30:01.576Z,19.17
2018-03-15T01:32:29.160Z,25.87
2018-03-15T01:34:56.752Z,41.23
2018-03-15T01:37:24.402Z,22.77
2018-03-15T01:39:51.975Z,31.00
2018-03-15T01:42:19.672Z,29.43
2018-03-15T01:44:47.239Z,28.57
2018-03-15T01:47:15.004Z,35.50
2018-03-15T01:49:42.624Z,28.93
2018-03-15T01:52:10.204Z,26.90
2018-03-15T01:54:37.792Z,23.73
2018-03-15T01:57:05.449Z,13.60
2018-03-15T01:59:33.124Z,24.23
2018-03-15T02:02:00.953Z,18.20
2018-03-15T02:04:28.638Z,21.10
2018-03-15T02:06:56.314Z,14.77
2018-03-15T02:09:24.030Z,29.13
2018-03-15T02:11:51.840Z,16.17
2018-03-15T02:14:19.420Z,23.33
2018-03-15T02:16:46.984Z,18.33
2018-03-15T02:19:14.815Z,26.97
2018-03-15T02:21:42.479Z,21.33
2018-03-15T02:24:10.150Z,27.53
2018-03-15T02:26:37.814Z,22.43
2018-03-15T02:29:05.386Z,21.97
2018-03-15T02:31:33.133Z,19.40
2018-03-15T02:34:00.744Z,19.03
2018-03-15T02:36:28.324Z,22.37
2018-03-15T02:38:55.906Z,18.67
2018-03-15T02:41:23.518Z,17.63
2018-03-15T02:43:51.251Z,25.30
2018-03-15T02:46:18.892Z,16.23
2018-03-15T02:48:46.500Z,31.10
2018-03-15T02:51:14.224Z,22.37
2018-03-15T02:53:41.879Z,18.63
2018-03-15T02:56:09.486Z,26.33
2018-03-15T02:58:37.211Z,21.63
2018-03-15T03:01:04.792Z,17.67
2018-03-15T03:03:32.545Z,18.13
2018-03-15T03:06:00.115Z,21.37
2018-03-15T03:08:27.858Z,11.60
2018-03-15T03:10:55.478Z,34.40
2018-03-15T03:13:23.198Z,19.30
2018-03-15T03:15:50.845Z,20.10
2018-03-15T03:18:18.462Z,19.97
2018-03-15T03:20:46.036Z,15.43
2018-03-15T03:23:13.609Z,19.37
2018-03-15T03:25:41.225Z,20.13
2018-03-15T03:28:08.797Z,18.40
2018-03-15T03:30:36.393Z,20.60
2018-03-15T03:33:04.014Z,41.33
2018-03-15T03:35:31.589Z,23.53
2018-03-15T03:37:59.173Z,13.57
2018-03-15T03:40:26.855Z,14.60
2018-03-15T03:42:54.436Z,21.80
2018-03-15T03:45:22.175Z,13.87
2018-03-15T03:47:49.841Z,20.60
2018-03-15T03:50:17.409Z,16.03
2018-03-15T03:52:44.976Z,16.47
2018-03-15T03:55:12.592Z,13.63
2018-03-15T03:57:40.172Z,17.40
2018-03-15T04:00:07.972Z,13.83
2018-03-15T04:02:35.569Z,24.87
2018-03-15T04:05:03.278Z,13.70
2018-03-15T04:07:30.888Z,21.67
2018-03-15T04:09:58.501Z,25.40
2018-03-15T04:12:26.071Z,27.43
2018-03-15T04:14:53.636Z,23.60
2018-03-15T04:17:21.386Z,18.43
2018-03-15T04:19:48.961Z,23.93
2018-03-15T04:22:16.529Z,21.43
2018-03-15T04:24:44.131Z,23.63
2018-03-15T04:27:11.708Z,19.00
2018-03-15T04:29:39.288Z,20.43
2018-03-15T04:32:06.907Z,33.20
2018-03-15T04:34:34.617Z,28.90
2018-03-15T04:37:02.270Z,39.83
2018-03-15T04:39:30.141Z,29.60
2018-03-15T04:41:57.716Z,31.07
2018-03-15T04:44:25.471Z,40.00
2018-03-15T04:46:53.133Z,27.23
2018-03-15T04:49:20.798Z,24.03
2018-03-15T04:51:48.364Z,21.00
2018-03-15T04:54:16.328Z,28.30
2018-03-15T04:56:43.972Z,22.90
2018-03-15T04:59:11.633Z,43.00
2018-03-15T05:01:39.236Z,31.47
2018-03-15T05:04:06.815Z,38.07
2018-03-15T05:06:34.388Z,50.30
2018-03-15T05:09:02.012Z,42.83
2018-03-15T05:11:29.745Z,35.17
2018-03-15T05:13:57.314Z,30.57
2018-03-15T05:16:24.933Z,39.73
2018-03-15T05:18:52.499Z,36.63
2018-03-15T05:21:20.080Z,41.70
2018-03-15T05:23:47.698Z,45.67
2018-03-15T05:26:15.267Z,38.93
2018-03-15T05:28:42.874Z,59.53
2018-03-15T05:31:10.529Z,36.10
2018-03-15T05:33:38.197Z,58.13
2018-03-15T05:36:05.772Z,60.67
2018-03-15T05:38:33.389Z,43.40
2018-03-15T05:41:01.189Z,33.30
2018-03-15T05:43:28.853Z,50.27
2018-03-15T05:45:56.603Z,33.00
2018-03-15T05:48:24.195Z,36.50
2018-03-15T05:50:51.840Z,52.57
2018-03-15T05:53:19.432Z,46.57
2018-03-15T05:55:47.165Z,25.57
2018-03-15T05:58:14.826Z,30.77
2018-03-15T06:00:42.535Z,45.30
2018-03-15T06:03:10.154Z,54.90
2018-03-15T06:05:37.828Z,35.07
2018-03-15T06:08:05.415Z,33.13
2018-03-15T06:10:33.357Z,51.90
2018-03-15T06:13:00.942Z,67.30
2018-03-15T06:15:28.670Z,38.53
2018-03-15T06:17:56.332Z,41.00
2018-03-15T06:20:24.005Z,46.93
2018-03-15T06:22:51.713Z,31.90
2018-03-15T06:25:19.534Z,47.37
2018-03-15T06:27:47.198Z,35.07
2018-03-15T06:30:14.926Z,25.37
2018-03-15T06:32:42.893Z,31.10
2018-03-15T06:35:10.582Z,35.57
2018-03-15T06:37:38.200Z,42.20
2018-03-15T06:40:05.904Z,60.00
2018-03-15T06:42:33.710Z,50.07
2018-03-15T06:45:01.555Z,49.83
2018-03-15T06:47:29.432Z,52.13
2018-03-15T06:49:57.389Z,54.80
2018-03-15T06:52:24.998Z,43.00
2018-03-15T06:54:52.720Z,30.90
2018-03-15T06:57:20.309Z,38.43
2018-03-15T06:59:48.007Z,42.37
2018-03-15T07:02:15.918Z,34.43
2018-03-15T07:04:43.501Z,30.63
2018-03-15T07:07:12.248Z,28.43
2018-03-15T07:09:39.912Z,29.53
2018-03-15T07:12:07.564Z,28.23
2018-03-15T07:14:35.159Z,26.57
2018-03-15T07:17:02.890Z,14.17
2018-03-15T07:19:30.551Z,9.93
2018-03-15T07:21:58.214Z,12.03
2018-03-15T07:24:25.951Z,16.47
2018-03-15T07:26:53.741Z,14.77
2018-03-15T07:29:21.466Z,33.10
2018-03-15T07:31:49.039Z,9.00
2018-03-15T07:34:16.617Z,10.57
2018-03-15T07:36:44.390Z,8.50
2018-03-15T07:39:12.054Z,8.70
2018-03-15T07:41:39.628Z,11.57
2018-03-15T07:44:07.236Z,14.13
2018-03-15T07:46:34.822Z,13.60
2018-03-15T07:49:02.498Z,8.00
2018-03-15T07:51:30.162Z,7.50
2018-03-15T07:53:57.735Z,12.30
2018-03-15T07:56:25.495Z,13.83
2018-03-15T07:58:53.802Z,12.63
2018-03-15T08:01:21.381Z,10.47
2018-03-15T08:03:48.943Z,10.10
2018-03-15T08:06:16.740Z,14.77
2018-03-15T08:08:44.326Z,10.37
2018-03-15T08:11:11.900Z,9.83
2018-03-15T08:13:39.591Z,12.77
2018-03-15T08:16:07.174Z,13.07
2018-03-15T08:18:35.070Z,8.13
2018-03-15T08:21:02.683Z,12.10
2018-03-15T08:23:30.292Z,15.30
2018-03-15T08:25:58.054Z,10.83
2018-03-15T08:28:25.720Z,12.27
2018-03-15T08:30:53.302Z,14.43
2018-03-15T08:33:20.954Z,9.20
2018-03-15T08:35:48.738Z,8.70
2018-03-15T08:38:16.306Z,13.03
2018-03-15T08:40:44.032Z,34.63
2018-03-15T08:43:11.640Z,8.53
2018-03-15T08:45:39.228Z,27.43
2018-03-15T08:48:06.813Z,8.07
2018-03-15T08:50:34.416Z,11.60
2018-03-15T08:53:01.986Z,9.73
2018-03-15T08:55:29.597Z,8.40
2018-03-15T08:57:57.213Z,12.00
2018-03-15T09:00:24.795Z,11.27
2018-03-15T09:02:52.382Z,11.03
2018-03-15T09:05:20.232Z,9.87
2018-03-15T09:07:47.703Z,19.50
2018-03-15T09:10:15.359Z,9.93
2018-03-15T09:12:42.966Z,10.27
2018-03-15T09:15:10.690Z,7.40
2018-03-15T09:17:38.351Z,15.63
2018-03-15T09:20:05.975Z,13.83
2018-03-15T09:22:33.551Z,10.23
2018-03-15T09:25:01.387Z,10.90
2018-03-15T09:27:29.207Z,11.90
2018-03-15T09:29:56.801Z,16.70
2018-03-15T09:32:24.419Z,9.47
2018-03-15T09:34:52.076Z,9.80
2018-03-15T09:37:19.687Z,7.23
2018-03-15T09:39:47.291Z,7.80
2018-03-15T09:42:14.928Z,11.10
2018-03-15T09:44:42.518Z,8.70
2018-03-15T09:47:10.111Z,8.00
2018-03-15T09:49:37.800Z,17.17
2018-03-15T09:52:05.414Z,9.90
2018-03-15T09:54:33.002Z,11.07
2018-03-15T09:57:00.662Z,11.37
2018-03-15T09:59:28.238Z,11.93
2018-03-15T10:01:55.863Z,7.13
2018-03-15T10:04:23.479Z,6.90
2018-03-15T10:06:51.079Z,7.83
2018-03-15T10:09:18.683Z,9.67
2018-03-15T10:11:46.283Z,10.27
2018-03-15T10:14:13.997Z,7.33
2018-03-15T10:16:41.608Z,8.27
2018-03-15T10:19:09.258Z,9.00
2018-03-15T10:21:36.877Z,9.70
2018-03-15T10:24:04.538Z,7.50
2018-03-15T10:26:32.181Z,7.73
2018-03-15T10:28:59.787Z,11.27
2018-03-15T10:31:27.364Z,7.97
2018-03-15T10:33:55.065Z,10.43
2018-03-15T10:36:22.697Z,12.40
2018-03-15T10:38:50.298Z,11.80
2018-03-15T10:41:17.937Z,7.43
2018-03-15T10:43:45.522Z,9.13
2018-03-15T10:46:13.173Z,8.40
2018-03-15T10:48:40.899Z,16.50
2018-03-15T10:51:08.598Z,6.80
2018-03-15T10:53:36.206Z,8.27
2018-03-15T10:56:03.840Z,8.20
2018-03-15T10:58:31.431Z,10.20
2018-03-15T11:01:04.673Z,11.23
2018-03-15T11:03:37.865Z,14.70
2018-03-15T11:06:10.558Z,9.00
2018-03-15T11:08:38.549Z,8.07
2018-03-15T11:11:06.283Z,8.57
2018-03-15T11:13:33.933Z,22.97
2018-03-15T11:16:01.574Z,16.90
2018-03-15T11:18:29.158Z,7.00
2018-03-15T11:20:56.793Z,8.37
2018-03-15T11:23:24.456Z,7.53
2018-03-15T11:25:52.240Z,10.27
2018-03-15T11:28:19.819Z,8.30
2018-03-15T11:30:47.431Z,7.63
2018-03-15T11:33:15.035Z,34.80
2018-03-15T11:35:42.647Z,7.37
2018-03-15T11:38:10.289Z,7.83
2018-03-15T11:40:37.903Z,6.30
2018-03-15T11:43:05.507Z,7.13
2018-03-15T11:45:33.134Z,7.13
2018-03-15T11:48:00.808Z,10.10
2018-03-15T11:50:28.427Z,6.50
2018-03-15T11:52:56.101Z,11.63
2018-03-15T11:55:23.775Z,11.30
2018-03-15T11:57:51.386Z,7.50
2018-03-15T12:00:19.237Z,8.57
2018-03-15T12:02:46.839Z,12.77
2018-03-15T12:05:14.448Z,12.10
2018-03-15T12:07:42.106Z,10.23
2018-03-15T12:10:09.706Z,12.10
2018-03-15T12:12:37.424Z,7.53
2018-03-15T12:15:05.273Z,8.20
2018-03-15T12:17:32.952Z,11.83
2018-03-15T12:20:00.521Z,10.50
2018-03-15T12:22:28.113Z,9.30
2018-03-15T12:24:55.690Z,9.20
2018-03-15T12:27:23.394Z,18.60
2018-03-15T12:29:51.003Z,14.30
2018-03-15T12:32:18.726Z,15.40
2018-03-15T12:34:46.386Z,15.47
2018-03-15T12:37:13.976Z,12.50
2018-03-15T12:39:41.546Z,15.47
2018-03-15T12:42:09.359Z,12.83
2018-03-15T12:44:37.006Z,11.70
2018-03-15T12:47:04.577Z,9.90
2018-03-15T12:49:32.183Z,16.17
2018-03-15T12:51:59.800Z,9.57
2018-03-15T12:54:27.474Z,11.83
2018-03-15T12:56:55.133Z,14.80
2018-03-15T12:59:22.717Z,17.83
2018-03-15T13:01:50.348Z,11.40
2018-03-15T13:04:18.114Z,10.20
2018-03-15T13:06:45.796Z,15.10
2018-03-15T13:09:13.760Z,13.30
2018-03-15T13:11:41.399Z,10.27
2018-03-15T13:14:08.965Z,13.57
2018-03-15T13:16:37.064Z,12.53
2018-03-15T13:19:04.666Z,7.47
2018-03-15T13:21:32.231Z,25.40
2018-03-15T13:23:59.813Z,12.33
2018-03-15T13:26:30.735Z,15.00
2018-03-15T13:28:58.387Z,13.67
2018-03-15T13:31:26.101Z,11.17
2018-03-15T13:33:53.715Z,9.50
2018-03-15T13:36:21.280Z,8.70
2018-03-15T13:38:48.854Z,9.17
2018-03-15T13:41:16.531Z,9.60
2018-03-15T13:43:44.111Z,16.53
2018-03-15T13:46:11.870Z,12.00
2018-03-15T13:48:39.468Z,7.83
2018-03-15T13:51:07.050Z,10.77
2018-03-15T13:53:34.650Z,16.03
2018-03-15T13:56:02.267Z,10.83
2018-03-15T13:58:30.056Z,9.83
2018-03-15T14:00:57.616Z,10.57
2018-03-15T14:03:25.218Z,14.93
2018-03-15T14:05:52.837Z,11.93
2018-03-15T14:08:20.400Z,12.17
2018-03-15T14:10:49.723Z,12.53
2018-03-15T14:13:17.469Z,9.60
2018-03-15T14:15:47.543Z,13.10
2018-03-15T14:18:15.262Z,16.67
2018-03-15T14:20:42.932Z,18.00
2018-03-15T14:23:10.582Z,15.30
2018-03-15T14:25:38.150Z,9.43
2018-03-15T14:28:05.774Z,11.00
2018-03-15T14:30:33.681Z,9.60
2018-03-15T14:33:01.350Z,14.50
2018-03-15T14:35:29.006Z,10.03
2018-03-15T14:37:56.576Z,11.37
2018-03-15T14:40:24.361Z,12.63
2018-03-15T14:42:52.096Z,12.43
2018-03-15T14:45:19.851Z,13.97
2018-03-15T14:47:47.660Z,15.30
2018-03-15T14:50:15.285Z,20.23
2018-03-15T14:52:42.875Z,24.00
2018-03-15T14:55:10.466Z,11.47
2018-03-15T14:57:38.066Z,17.33
2018-03-15T15:00:05.821Z,25.67
2018-03-15T15:02:33.404Z,15.60
2018-03-15T15:05:01.023Z,20.73
2018-03-15T15:07:28.598Z,15.00
2018-03-15T15:09:56.172Z,13.33
2018-03-15T15:12:23.784Z,10.17
2018-03-15T15:14:51.343Z,15.90
2018-03-15T15:17:18.931Z,10.70
2018-03-15T15:19:46.536Z,12.30
2018-03-15T15:22:14.284Z,13.30
2018-03-15T15:24:41.938Z,14.60
2018-03-15T15:27:09.605Z,55.60
2018-03-15T15:29:37.266Z,30.33
2018-03-15T15:32:04.834Z,20.20
2018-03-15T15:34:32.440Z,15.77
2018-03-15T15:37:00.049Z,15.60
2018-03-15T15:39:27.629Z,27.97
2018-03-15T15:41:55.447Z,18.47
2018-03-15T15:44:23.004Z,13.73
2018-03-15T15:46:50.569Z,39.83
2018-03-15T15:49:18.188Z,19.80
2018-03-15T15:51:45.820Z,29.20
2018-03-15T15:54:13.463Z,29.43
2018-03-15T15:56:41.089Z,61.90
2018-03-15T15:59:08.787Z,28.03
2018-03-15T16:01:36.468Z,33.17
2018-03-15T16:04:04.323Z,27.07
2018-03-15T16:06:31.905Z,32.40
2018-03-15T16:08:59.515Z,22.10
2018-03-15T16:11:27.128Z,29.37
2018-03-15T16:13:55.166Z,53.27
2018-03-15T16:16:22.852Z,60.43
2018-03-15T16:18:50.482Z,40.97
2018-03-15T16:21:18.074Z,36.30
2018-03-15T16:23:45.889Z,47.80
2018-03-15T16:26:13.692Z,40.83
2018-03-15T16:28:41.390Z,703.73
2018-03-15T16:31:08.978Z,496.23
2018-03-15T16:33:36.694Z,286.30
2018-03-15T16:36:04.279Z,213.33
2018-03-15T16:38:31.852Z,143.13
2018-03-15T16:40:59.862Z,112.20
2018-03-15T16:43:27.749Z,67.57
2018-03-15T16:45:55.307Z,35.33
2018-03-15T16:48:23.077Z,41.67
2018-03-15T16:50:50.738Z,23.53
2018-03-15T16:53:18.343Z,23.40
2018-03-15T16:55:45.962Z,28.43
2018-03-15T16:58:13.571Z,53.20
2018-03-15T17:00:41.181Z,60.30
2018-03-15T17:03:08.832Z,84.33
2018-03-15T17:05:36.413Z,84.90
2018-03-15T17:08:04.158Z,35.13
2018-03-15T17:10:31.832Z,53.67
2018-03-15T17:12:59.473Z,70.30
2018-03-15T17:15:27.058Z,74.67
2018-03-15T17:17:54.657Z,80.67
2018-03-15T17:20:22.274Z,41.23
2018-03-15T17:22:49.918Z,66.33
2018-03-15T17:25:17.520Z,73.30
2018-03-15T17:27:45.242Z,38.03
2018-03-15T17:30:12.827Z,82.57
2018-03-15T17:32:40.492Z,32.50
2018-03-15T17:35:08.076Z,48.90
2018-03-15T17:37:35.659Z,63.30
2018-03-15T17:40:03.348Z,75.40
2018-03-15T17:42:30.931Z,25.90
2018-03-15T17:44:58.516Z,39.53
2018-03-15T17:47:26.151Z,26.73
2018-03-15T17:49:53.731Z,30.33
2018-03-15T17:52:21.308Z,26.90
2018-03-15T17:54:49.120Z,17.87
2018-03-15T17:57:16.000Z,38.80
2018-03-15T17:59:43.642Z,27.53
2018-03-15T18:02:11.286Z,20.80
2018-03-15T18:04:39.050Z,36.43
2018-03-15T18:07:06.733Z,53.73
2018-03-15T18:09:34.350Z,57.53
2018-03-15T18:12:01.935Z,22.87
2018-03-15T18:14:29.514Z,36.93
2018-03-15T18:16:57.129Z,41.93
2018-03-15T18:19:24.696Z,32.50
2018-03-15T18:21:52.486Z,53.13
2018-03-15T18:24:20.132Z,50.77
2018-03-15T18:26:47.722Z,39.17
2018-03-15T18:29:15.356Z,35.70
2018-03-15T18:31:43.097Z,37.97
2018-03-15T18:34:10.798Z,61.63
2018-03-15T18:36:38.388Z,39.00
2018-03-15T18:39:06.027Z,44.33
2018-03-15T18:41:33.611Z,43.63
2018-03-15T18:44:01.209Z,48.67
2018-03-15T18:46:28.897Z,30.53
2018-03-15T18:48:56.473Z,57.90
2018-03-15T18:51:24.409Z,66.40
2018-03-15T18:53:52.306Z,49.43
2018-03-15T18:56:19.974Z,47.93
2018-03-15T18:58:47.718Z,32.30
2018-03-15T19:01:15.508Z,52.07
2018-03-15T19:03:43.075Z,43.40
2018-03-15T19:06:10.814Z,44.17
2018-03-15T19:08:38.431Z,36.27
2018-03-15T19:11:06.048Z,34.57
2018-03-15T19:13:33.620Z,72.27
2018-03-15T19:16:01.232Z,35.83
2018-03-15T19:18:28.809Z,64.90
2018-03-15T19:20:56.376Z,51.67
2018-03-15T19:23:23.973Z,47.00
2018-03-15T19:25:51.561Z,38.63
2018-03-15T19:28:19.172Z,46.00
2018-03-15T19:30:46.811Z,42.97
2018-03-15T19:33:14.505Z,33.23
2018-03-15T19:35:42.151Z,25.30
2018-03-15T19:38:09.767Z,41.43
2018-03-15T19:40:37.484Z,49.93
2018-03-15T19:43:05.130Z,52.60
2018-03-15T19:45:32.733Z,55.17
2018-03-15T19:48:00.303Z,39.37
2018-03-15T19:50:27.879Z,54.30
2018-03-15T19:52:55.529Z,54.57
2018-03-15T19:55:23.257Z,68.07
2018-03-15T19:57:50.826Z,66.13
2018-03-15T20:00:18.530Z,77.07
2018-03-15T20:02:46.137Z,80.13
2018-03-15T20:05:13.699Z,113.37
2018-03-15T20:07:41.296Z,128.00
2018-03-15T20:10:08.861Z,158.73
2018-03-15T20:12:36.428Z,149.47
2018-03-15T20:15:04.043Z,81.97
2018-03-15T20:17:31.608Z,87.87
2018-03-15T20:19:59.172Z,83.83
2018-03-15T20:22:32.436Z,63.33
2018-03-15T20:25:00.006Z,48.80
2018-03-15T20:27:33.307Z,84.23
2018-03-15T20:30:00.886Z,64.97
2018-03-15T20:32:34.034Z,76.67
2018-03-15T20:35:01.607Z,144.53
2018-03-15T20:37:29.203Z,52.07
2018-03-15T20:40:02.251Z,59.50
2018-03-15T20:42:29.816Z,90.90
2018-03-15T20:44:57.396Z,66.10
2018-03-15T20:47:30.609Z,62.97
2018-03-15T20:49:58.184Z,70.13
2018-03-15T20:52:25.760Z,40.57
2018-03-15T20:54:53.361Z,47.23
2018-03-15T20:57:20.940Z,44.63
2018-03-15T20:59:48.679Z,38.70
2018-03-15T21:02:16.268Z,44.83
2018-03-15T21:04:43.831Z,50.00
2018-03-15T21:07:11.395Z,55.13
2018-03-15T21:09:39.000Z,54.07
2018-03-15T21:12:06.563Z,40.73
2018-03-15T21:14:34.241Z,34.80
2018-03-15T21:17:01.818Z,51.07
2018-03-15T21:19:29.372Z,76.00
2018-03-15T21:21:57.222Z,36.47
2018-03-15T21:24:24.820Z,45.40
2018-03-15T21:26:52.475Z,32.23
2018-03-15T21:29:20.025Z,40.13
2018-03-15T21:31:47.630Z,32.10
2018-03-15T21:34:15.187Z,41.00
2018-03-15T21:36:42.762Z,31.20
2018-03-15T21:39:10.366Z,41.37
2018-03-15T21:41:37.931Z,34.40
2018-03-15T21:44:05.499Z,41.30
2018-03-15T21:46:33.108Z,44.63
2018-03-15T21:49:00.828Z,34.00
2018-03-15T21:51:28.398Z,50.53
2018-03-15T21:53:56.008Z,42.70
2018-03-15T21:56:23.680Z,54.87
2018-03-15T21:58:51.244Z,40.20
2018-03-15T22:01:18.856Z,36.07
2018-03-15T22:03:46.932Z,45.73
2018-03-15T22:06:14.546Z,46.23
2018-03-15T22:08:42.213Z,48.73
2018-03-15T22:11:09.804Z,42.97
2018-03-15T22:13:37.386Z,57.83
2018-03-15T22:16:05.014Z,52.07
2018-03-15T22:18:32.657Z,48.33
2018-03-15T22:21:00.217Z,44.73
2018-03-15T22:23:27.827Z,62.63
2018-03-15T22:25:55.417Z,48.87
2018-03-15T22:28:22.981Z,48.30
2018-03-15T22:30:50.590Z,45.90
2018-03-15T22:33:18.197Z,45.87
2018-03-15T22:35:45.853Z,36.83
2018-03-15T22:38:13.478Z,45.87
2018-03-15T22:40:41.032Z,49.80
2018-03-15T22:43:08.595Z,36.30
2018-03-15T22:45:36.198Z,36.83
2018-03-15T22:48:03.768Z,36.83
2018-03-15T22:50:31.346Z,35.70
2018-03-15T22:52:58.953Z,39.03
2018-03-15T22:55:26.554Z,41.70
2018-03-15T22:57:54.216Z,38.77
2018-03-15T23:00:21.828Z,54.43
2018-03-15T23:02:49.435Z,39.77
2018-03-15T23:05:17.280Z,38.80
2018-03-15T23:07:44.884Z,34.23
2018-03-15T23:10:12.442Z,42.50
2018-03-15T23:12:40.036Z,43.03
2018-03-15T23:15:07.656Z,43.67
2018-03-15T23:17:35.367Z,35.87
2018-03-15T23:20:02.934Z,41.10
2018-03-15T23:22:30.630Z,50.10
2018-03-15T23:24:58.214Z,38.63
2018-03-15T23:27:25.775Z,43.97
2018-03-15T23:29:53.371Z,38.53
2018-03-15T23:32:20.936Z,43.27
2018-03-15T23:34:48.523Z,36.77
2018-03-15T23:37:16.150Z,41.43
2018-03-15T23:39:43.719Z,41.40
2018-03-15T23:42:11.284Z,45.27
2018-03-15T23:44:38.889Z,36.03
2018-03-15T23:47:06.483Z,39.27
2018-03-15T23:49:34.060Z,35.07
2018-03-15T23:52:01.756Z,35.00
2018-03-15T23:54:29.418Z,41.97
2018-03-15T23:56:56.997Z,40.10
2018-03-15T23:59:24.761Z,37.77
